Time;durP1;ratioP1;P1;durP2;ratioP2;P2;SDS_P1;SDS_P2;PMS_P1;PMS_P2;Temp;Humidity;BMP_temperature;BMP_pressure;BME280_temperature;BME280_humidity;BME280_pressure;Samples;Min_cycle;Max_cycle;Signal;HPM_P1;HPM_P2
2024/04/09 00:02:13;;;;;;;2.42;1.73;;;;;;;;;;11190411;26;20026;-60
2024/04/09 00:07:14;;;;;;;3.35;2.53;;;;;;;;;;11191585;26;20030;-60
2024/04/09 00:12:21;;;;;;;1.80;1.70;;;;;;;;;;11187964;26;20477;-59
2024/04/09 00:17:25;;;;;;;1.67;1.58;;;;;;;;;;11189203;26;20053;-60
2024/04/09 00:22:27;;;;;;;;;;;;;;;;;;11185267;26;20038;-60
2024/04/09 00:27:30;;;;;;;4.80;2.38;;;;;;;;;;11194338;26;19979;-59
2024/04/09 00:32:30;;;;;;;4.75;1.73;;;;;;;;;;11194452;26;20029;-59
2024/04/09 00:37:31;;;;;;;4.38;1.77;;;;;;;;;;11192599;25;20383;-58
2024/04/09 00:42:34;;;;;;;3.92;2.28;;;;;;;;;;11193788;26;20034;-59
2024/04/09 00:47:34;;;;;;;2.67;2.03;;;;;;;;;;11188456;26;20021;-59
2024/04/09 00:52:37;;;;;;;5.68;2.33;;;;;;;;;;11189527;26;20022;-60
2024/04/09 00:57:41;;;;;;;3.58;2.35;;;;;;;;;;11189736;26;20022;-59
2024/04/09 01:02:42;;;;;;;2.83;1.70;;;;;;;;;;11184413;26;20400;-59
2024/04/09 01:07:43;;;;;;;2.17;1.63;;;;;;;;;;11186407;26;20033;-58
2024/04/09 01:12:46;;;;;;;2.92;2.08;;;;;;;;;;11195834;26;20034;-59
2024/04/09 01:17:46;;;;;;;2.47;2.00;;;;;;;;;;11192654;26;20036;-60
2024/04/09 01:22:50;;;;;;;2.25;2.05;;;;;;;;;;11189317;26;20033;-60
2024/04/09 01:27:51;;;;;;;4.07;1.92;;;;;;;;;;11189764;26;20026;-60
2024/04/09 01:32:51;;;;;;;2.63;2.17;;;;;;;;;;11193251;26;20038;-60
2024/04/09 01:37:55;;;;;;;4.60;2.15;;;;;;;;;;11190835;26;20486;-60
2024/04/09 01:42:55;;;;;;;1.70;1.50;;;;;;;;;;11182804;26;20031;-59
2024/04/09 01:47:55;;;;;;;2.35;1.85;;;;;;;;;;11187296;26;20030;-59
2024/04/09 01:52:59;;;;;;;3.72;1.50;;;;;;;;;;11184470;26;20026;-59
2024/04/09 01:57:59;;;;;;;4.65;2.03;;;;;;;;;;11187199;26;20381;-59
2024/04/09 02:03:01;;;;;;;2.05;1.73;;;;;;;;;;11185720;26;20466;-58
2024/04/09 02:08:04;;;;;;;4.22;3.80;;;;;;;;;;11187571;25;20029;-59
2024/04/09 02:13:05;;;;;;;2.10;2.00;;;;;;;;;;11176322;26;20041;-58
2024/04/09 02:18:05;;;;;;;1.98;1.65;;;;;;;;;;11190744;26;20050;-60
2024/04/09 02:23:08;;;;;;;3.00;1.70;;;;;;;;;;11192276;26;20029;-58
2024/04/09 02:28:09;;;;;;;2.30;1.60;;;;;;;;;;11188183;26;20029;-59
2024/04/09 02:33:09;;;;;;;3.33;1.52;;;;;;;;;;11181131;26;20027;-59
2024/04/09 02:38:12;;;;;;;2.70;2.33;;;;;;;;;;11187691;26;20038;-59
2024/04/09 02:43:13;;;;;;;7.20;4.38;;;;;;;;;;11181442;26;20054;-60
2024/04/09 02:48:13;;;;;;;12.15;5.82;;;;;;;;;;11184891;26;20034;-59
2024/04/09 02:53:16;;;;;;;10.00;4.72;;;;;;;;;;11187550;25;20033;-59
2024/04/09 02:58:17;;;;;;;6.30;4.65;;;;;;;;;;11187458;26;20480;-59
2024/04/09 03:03:17;;;;;;;6.07;4.05;;;;;;;;;;11184575;26;20476;-60
2024/04/09 03:08:20;;;;;;;8.95;4.55;;;;;;;;;;11185402;26;20108;-59
2024/04/09 03:13:20;;;;;;;11.77;4.93;;;;;;;;;;11185503;26;20468;-59
2024/04/09 03:18:21;;;;;;;7.30;5.25;;;;;;;;;;11197046;26;20482;-58
2024/04/09 03:23:24;;;;;;;6.15;3.72;;;;;;;;;;11191553;26;20038;-59
2024/04/09 03:28:24;;;;;;;7.60;4.15;;;;;;;;;;11193079;26;20030;-58
2024/04/09 03:33:25;;;;;;;7.97;4.30;;;;;;;;;;11190027;26;20039;-59
2024/04/09 03:38:28;;;;;;;14.90;4.25;;;;;;;;;;11190441;26;20034;-58
2024/04/09 03:43:29;;;;;;;16.05;9.80;;;;;;;;;;11187591;26;20034;-60
2024/04/09 03:48:29;;;;;;;15.95;12.15;;;;;;;;;;11195586;25;20483;-60
2024/04/09 03:53:32;;;;;;;11.07;6.50;;;;;;;;;;11189484;26;20038;-59
2024/04/09 03:58:33;;;;;;;7.57;4.43;;;;;;;;;;11193981;26;20483;-59
2024/04/09 04:03:34;;;;;;;7.57;4.47;;;;;;;;;;11192683;25;20034;-57
2024/04/09 04:08:38;;;;;;;6.45;4.97;;;;;;;;;;11186214;26;20038;-57
2024/04/09 04:13:39;;;;;;;14.73;5.10;;;;;;;;;;11193529;26;20033;-59
2024/04/09 04:18:40;;;;;;;9.23;8.02;;;;;;;;;;11178201;26;20064;-58
2024/04/09 04:23:43;;;;;;;12.38;9.05;;;;;;;;;;11189707;26;20369;-58
2024/04/09 04:28:44;;;;;;;5.93;4.00;;;;;;;;;;11187479;26;20027;-58
2024/04/09 04:33:45;;;;;;;6.97;4.00;;;;;;;;;;11194830;26;20030;-58
2024/04/09 04:38:48;;;;;;;4.97;3.70;;;;;;;;;;11192235;26;20042;-60
2024/04/09 04:43:50;;;;;;;8.38;4.68;;;;;;;;;;11192841;26;20034;-58
2024/04/09 04:48:50;;;;;;;8.60;4.53;;;;;;;;;;11182853;26;20582;-58
2024/04/09 04:53:54;;;;;;;5.43;2.10;;;;;;;;;;11189964;26;20026;-59
2024/04/09 04:58:54;;;;;;;4.68;3.13;;;;;;;;;;11185121;26;20007;-60
2024/04/09 05:03:54;;;;;;;6.05;3.40;;;;;;;;;;11181864;26;19994;-59
2024/04/09 05:08:57;;;;;;;7.88;5.72;;;;;;;;;;11176050;26;20009;-58
2024/04/09 05:13:58;;;;;;;4.38;2.80;;;;;;;;;;11185175;26;20025;-58
2024/04/09 05:18:58;;;;;;;2.58;1.80;;;;;;;;;;11184771;26;20026;-58
2024/04/09 05:24:01;;;;;;;2.78;2.00;;;;;;;;;;11185457;26;20470;-57
2024/04/09 05:29:03;;;;;;;3.25;2.22;;;;;;;;;;11185311;26;20466;-58
2024/04/09 05:34:03;;;;;;;3.90;2.30;;;;;;;;;;11191629;26;20026;-56
2024/04/09 05:39:09;;;;;;;2.20;2.00;;;;;;;;;;11163061;26;20035;-56
2024/04/09 05:44:09;;;;;;;2.80;2.60;;;;;;;;;;11207787;26;20041;-58
2024/04/09 05:49:10;;;;;;;2.78;2.10;;;;;;;;;;11182668;26;20045;-57
2024/04/09 05:54:13;;;;;;;4.57;1.92;;;;;;;;;;11178976;26;20038;-58
2024/04/09 05:59:13;;;;;;;1.70;1.60;;;;;;;;;;11183613;26;20041;-59
2024/04/09 06:04:14;;;;;;;5.63;2.00;;;;;;;;;;11176295;26;20030;-59
2024/04/09 06:09:19;;;;;;;1.88;1.70;;;;;;;;;;11182443;26;20457;-59
2024/04/09 06:14:20;;;;;;;3.03;2.43;;;;;;;;;;11178658;26;19997;-59
2024/04/09 06:19:20;;;;;;;1.70;1.60;;;;;;;;;;11184625;26;20053;-58
2024/04/09 06:24:24;;;;;;;3.25;1.80;;;;;;;;;;11181921;26;20016;-58
2024/04/09 06:29:24;;;;;;;6.93;2.88;;;;;;;;;;11174882;26;20016;-58
2024/04/09 06:34:25;;;;;;;9.63;3.10;;;;;;;;;;11174472;26;20012;-58
2024/04/09 06:39:28;;;;;;;3.33;2.42;;;;;;;;;;11181893;26;20037;-58
2024/04/09 06:44:28;;;;;;;9.45;2.55;;;;;;;;;;11185050;26;20474;-59
2024/04/09 06:49:28;;;;;;;6.40;3.17;;;;;;;;;;11188743;26;20026;-59
2024/04/09 06:54:32;;;;;;;4.38;2.40;;;;;;;;;;11187698;26;20030;-59
2024/04/09 06:59:33;;;;;;;5.07;2.22;;;;;;;;;;11189680;26;20031;-59
2024/04/09 07:04:33;;;;;;;3.95;2.30;;;;;;;;;;11195152;26;20507;-58
2024/04/09 07:09:36;;;;;;;7.70;2.80;;;;;;;;;;11198124;25;20042;-58
2024/04/09 07:14:36;;;;;;;6.95;3.03;;;;;;;;;;11194866;25;20376;-59
2024/04/09 07:19:37;;;;;;;10.30;3.13;;;;;;;;;;11195650;26;20041;-59
2024/04/09 07:24:42;;;;;;;9.40;3.63;;;;;;;;;;11190399;26;20491;-59
2024/04/09 07:29:43;;;;;;;7.43;4.80;;;;;;;;;;11191719;26;20506;-59
2024/04/09 07:34:46;;;;;;;17.77;5.18;;;;;;;;;;11191953;26;20373;-58
2024/04/09 07:39:49;;;;;;;10.57;4.60;;;;;;;;;;11192676;26;20038;-59
2024/04/09 07:44:50;;;;;;;6.80;3.43;;;;;;;;;;11192904;26;20049;-59
2024/04/09 07:49:53;;;;;;;8.05;3.88;;;;;;;;;;11197128;26;20026;-58
2024/04/09 07:54:56;;;;;;;7.38;3.83;;;;;;;;;;11189647;26;20502;-58
2024/04/09 07:59:59;;;;;;;9.27;4.32;;;;;;;;;;11193419;26;20027;-59
2024/04/09 08:04:59;;;;;;;11.38;4.15;;;;;;;;;;11188929;26;20037;-58
2024/04/09 08:10:04;;;;;;;13.45;3.33;;;;;;;;;;11194269;26;20030;-59
2024/04/09 08:15:05;;;;;;;19.73;4.65;;;;;;;;;;11195148;26;20025;-59
2024/04/09 08:20:07;;;;;;;9.80;3.25;;;;;;;;;;11193322;26;20035;-59
2024/04/09 08:25:11;;;;;;;4.68;2.88;;;;;;;;;;11191656;26;20041;-57
2024/04/09 08:30:12;;;;;;;15.38;5.78;;;;;;;;;;11185467;26;20371;-58
2024/04/09 08:35:13;;;;;;;4.55;1.85;;;;;;;;;;11186328;26;20033;-58
2024/04/09 08:40:19;;;;;;;1.92;1.50;;;;;;;;;;11182003;26;20560;-58
2024/04/09 08:45:20;;;;;;;4.03;2.22;;;;;;;;;;11188413;26;20369;-59
2024/04/09 08:50:21;;;;;;;2.35;1.73;;;;;;;;;;11193744;26;20109;-59
2024/04/09 08:55:25;;;;;;;1.73;1.35;;;;;;;;;;11187880;25;20390;-56
2024/04/09 09:00:25;;;;;;;2.70;1.38;;;;;;;;;;11190422;26;20026;-58
2024/04/09 09:05:25;;;;;;;5.63;2.03;;;;;;;;;;11195464;26;20636;-59
2024/04/09 09:10:29;;;;;;;2.22;2.03;;;;;;;;;;11183128;26;20034;-59
2024/04/09 09:15:29;;;;;;;2.20;1.63;;;;;;;;;;11181162;26;20026;-59
2024/04/09 09:20:29;;;;;;;6.40;1.42;;;;;;;;;;11193630;26;20034;-59
2024/04/09 09:25:32;;;;;;;2.95;1.95;;;;;;;;;;11190637;26;20034;-59
2024/04/09 09:30:39;;;;;;;4.53;1.40;;;;;;;;;;11184910;26;20360;-59
2024/04/09 09:35:44;;;;;;;2.10;1.38;;;;;;;;;;11137363;26;20583;-59
2024/04/09 09:40:48;;;;;;;3.92;1.50;;;;;;;;;;11188499;26;20006;-60
2024/04/09 09:45:49;;;;;;;2.30;1.25;;;;;;;;;;11197508;26;20026;-60
2024/04/09 09:50:49;;;;;;;3.63;1.65;;;;;;;;;;11206616;25;20030;-60
2024/04/09 09:55:55;;;;;;;2.10;1.50;;;;;;;;;;11199683;26;20034;-60
2024/04/09 10:00:55;;;;;;;5.25;1.40;;;;;;;;;;11205864;26;20019;-59
2024/04/09 10:05:56;;;;;;;5.78;2.00;;;;;;;;;;11201749;26;20085;-58
2024/04/09 10:10:59;;;;;;;1.77;1.60;;;;;;;;;;11202657;26;20027;-58
2024/04/09 10:16:00;;;;;;;1.30;1.20;;;;;;;;;;11194454;26;20029;-59
2024/04/09 10:21:00;;;;;;;1.77;1.25;;;;;;;;;;11188327;26;20026;-60
2024/04/09 10:26:05;;;;;;;5.85;2.20;;;;;;;;;;11200710;26;20101;-59
2024/04/09 10:31:09;;;;;;;4.07;1.67;;;;;;;;;;11199563;25;20021;-59
2024/04/09 10:36:11;;;;;;;2.72;1.08;;;;;;;;;;11195995;26;20034;-59
2024/04/09 10:41:17;;;;;;;1.27;1.17;;;;;;;;;;11194060;26;20343;-59
2024/04/09 10:46:18;;;;;;;3.25;1.55;;;;;;;;;;11194908;26;20400;-59
2024/04/09 10:51:20;;;;;;;2.05;1.48;;;;;;;;;;11190011;26;20358;-60
2024/04/09 10:56:25;;;;;;;2.05;1.60;;;;;;;;;;11172493;26;20008;-59
2024/04/09 11:01:25;;;;;;;4.75;1.65;;;;;;;;;;11182954;26;20398;-59
2024/04/09 11:06:26;;;;;;;2.83;1.75;;;;;;;;;;11189197;26;20002;-59
2024/04/09 11:11:29;;;;;;;4.13;1.60;;;;;;;;;;11189711;26;20026;-59
2024/04/09 11:16:29;;;;;;;1.67;1.23;;;;;;;;;;11191589;26;20021;-59
2024/04/09 11:21:30;;;;;;;1.90;1.45;;;;;;;;;;11186357;26;20022;-59
2024/04/09 11:26:33;;;;;;;6.22;1.52;;;;;;;;;;11192856;26;20033;-60
2024/04/09 11:31:33;;;;;;;1.48;1.38;;;;;;;;;;11188391;26;20025;-59
2024/04/09 11:36:36;;;;;;;4.78;1.52;;;;;;;;;;11192911;26;20035;-59
2024/04/09 11:41:43;;;;;;;1.92;1.50;;;;;;;;;;11200606;26;20387;-57
2024/04/09 11:46:43;;;;;;;4.40;1.63;;;;;;;;;;11199005;26;20474;-59
2024/04/09 11:51:45;;;;;;;1.83;1.20;;;;;;;;;;11199267;26;20026;-60
2024/04/09 11:56:48;;;;;;;3.17;1.35;;;;;;;;;;11195085;26;20030;-60
2024/04/09 12:01:48;;;;;;;1.60;1.48;;;;;;;;;;11200293;26;20089;-60
2024/04/09 12:06:49;;;;;;;5.78;1.65;;;;;;;;;;11144957;26;20030;-59
2024/04/09 12:11:52;;;;;;;2.85;2.10;;;;;;;;;;11210113;26;20471;-58
2024/04/09 12:16:52;;;;;;;3.65;2.00;;;;;;;;;;11211428;26;20034;-59
2024/04/09 12:21:53;;;;;;;3.83;1.90;;;;;;;;;;11206158;26;20038;-59
2024/04/09 12:26:57;;;;;;;5.32;1.50;;;;;;;;;;11208295;25;20025;-59
2024/04/09 12:31:57;;;;;;;9.82;1.50;;;;;;;;;;11201000;26;20379;-59
2024/04/09 12:36:58;;;;;;;2.67;2.25;;;;;;;;;;11197163;26;20383;-59
2024/04/09 12:42:01;;;;;;;1.80;1.38;;;;;;;;;;11197437;26;20021;-59
2024/04/09 12:47:02;;;;;;;1.65;1.52;;;;;;;;;;11198134;26;20025;-59
2024/04/09 12:52:02;;;;;;;1.70;1.60;;;;;;;;;;11198848;26;20025;-59
2024/04/09 12:57:06;;;;;;;1.70;1.40;;;;;;;;;;11201426;26;20034;-59
2024/04/09 13:02:07;;;;;;;2.38;1.17;;;;;;;;;;11203127;26;20037;-59
2024/04/09 13:07:08;;;;;;;3.53;2.03;;;;;;;;;;11202632;26;20537;-59
2024/04/09 13:12:12;;;;;;;3.13;1.55;;;;;;;;;;11184783;26;20377;-59
2024/04/09 13:17:12;;;;;;;3.13;1.60;;;;;;;;;;11196539;26;20491;-59
2024/04/09 13:22:13;;;;;;;2.65;1.90;;;;;;;;;;11196512;26;20042;-59
2024/04/09 13:27:16;;;;;;;1.80;1.65;;;;;;;;;;11193386;26;20025;-59
2024/04/09 13:32:17;;;;;;;4.18;1.92;;;;;;;;;;11189014;26;20754;-60
2024/04/09 13:37:17;;;;;;;4.38;1.30;;;;;;;;;;11196267;26;20026;-60
2024/04/09 13:42:20;;;;;;;1.95;1.00;;;;;;;;;;11198689;26;20029;-60
2024/04/09 13:47:20;;;;;;;2.93;1.27;;;;;;;;;;11195509;26;20112;-60
2024/04/09 13:52:22;;;;;;;4.53;1.80;;;;;;;;;;11191433;26;20029;-60
2024/04/09 13:57:25;;;;;;;3.92;1.55;;;;;;;;;;11180055;26;20002;-59
2024/04/09 14:02:27;;;;;;;4.30;1.70;;;;;;;;;;11192218;25;20045;-60
2024/04/09 14:07:28;;;;;;;4.90;2.28;;;;;;;;;;11188429;26;20030;-60
2024/04/09 14:12:31;;;;;;;3.65;1.73;;;;;;;;;;11180661;26;20013;-60
2024/04/09 14:17:34;;;;;;;2.63;1.37;;;;;;;;;;11185549;26;20002;-60
2024/04/09 14:22:36;;;;;;;1.70;1.52;;;;;;;;;;11186480;26;19994;-59
2024/04/09 14:27:39;;;;;;;6.10;2.42;;;;;;;;;;11189146;26;20034;-60
2024/04/09 14:32:39;;;;;;;3.60;1.70;;;;;;;;;;11189255;26;20460;-59
2024/04/09 14:37:40;;;;;;;4.15;2.30;;;;;;;;;;11193897;26;20038;-59
2024/04/09 14:42:43;;;;;;;5.97;2.10;;;;;;;;;;11193110;26;20038;-59
2024/04/09 14:47:43;;;;;;;3.00;1.85;;;;;;;;;;11196150;26;20026;-60
2024/04/09 14:52:44;;;;;;;3.10;1.50;;;;;;;;;;11191936;26;20039;-60
2024/04/09 14:57:47;;;;;;;3.97;1.70;;;;;;;;;;11192183;26;20030;-60
2024/04/09 15:02:47;;;;;;;3.83;1.92;;;;;;;;;;11193508;26;20487;-59
2024/04/09 15:07:48;;;;;;;6.93;2.00;;;;;;;;;;11181737;26;20022;-61
2024/04/09 15:12:51;;;;;;;3.10;1.30;;;;;;;;;;11191578;26;20030;-59
2024/04/09 15:17:52;;;;;;;3.53;1.92;;;;;;;;;;11193212;26;20030;-60
2024/04/09 15:22:53;;;;;;;2.50;1.65;;;;;;;;;;11196497;26;20030;-59
2024/04/09 15:27:56;;;;;;;4.82;1.90;;;;;;;;;;11200158;26;20040;-59
2024/04/09 15:32:58;;;;;;;2.97;1.90;;;;;;;;;;11197354;26;20021;-59
2024/04/09 15:37:58;;;;;;;7.93;2.25;;;;;;;;;;11192037;26;20285;-60
2024/04/09 15:43:02;;;;;;;5.05;2.30;;;;;;;;;;11196481;26;20033;-60
2024/04/09 15:48:02;;;;;;;11.50;2.57;;;;;;;;;;11197673;26;20029;-60
2024/04/09 15:53:02;;;;;;;4.40;2.00;;;;;;;;;;11201939;26;20484;-61
2024/04/09 15:58:06;;;;;;;6.07;2.35;;;;;;;;;;11198145;26;20034;-60
2024/04/09 16:03:06;;;;;;;9.57;2.53;;;;;;;;;;11200173;26;20375;-60
2024/04/09 16:08:07;;;;;;;3.42;2.20;;;;;;;;;;11200049;26;20846;-61
2024/04/09 16:13:10;;;;;;;3.72;2.20;;;;;;;;;;11200343;25;20030;-60
2024/04/09 16:18:11;;;;;;;4.45;2.50;;;;;;;;;;11199550;26;20042;-60
2024/04/09 16:23:12;;;;;;;6.88;2.45;;;;;;;;;;11198116;26;20030;-60
2024/04/09 16:28:15;;;;;;;6.43;2.03;;;;;;;;;;11199898;26;20030;-60
2024/04/09 16:33:15;;;;;;;15.38;4.57;;;;;;;;;;11196384;26;20034;-60
2024/04/09 16:38:16;;;;;;;7.57;2.92;;;;;;;;;;11197781;26;20034;-60
2024/04/09 16:43:20;;;;;;;9.82;2.55;;;;;;;;;;11196825;26;20034;-60
2024/04/09 16:48:20;;;;;;;9.38;3.80;;;;;;;;;;11197841;26;20038;-60
2024/04/09 16:53:21;;;;;;;10.07;4.38;;;;;;;;;;11199501;26;20025;-60
2024/04/09 16:58:24;;;;;;;9.70;5.40;;;;;;;;;;11199428;26;20022;-60
2024/04/09 17:03:25;;;;;;;5.10;3.40;;;;;;;;;;11199086;26;20491;-60
2024/04/09 17:08:25;;;;;;;6.60;3.30;;;;;;;;;;11197466;26;20041;-60
2024/04/09 17:13:28;;;;;;;5.10;2.80;;;;;;;;;;11197607;26;20034;-60
2024/04/09 17:18:29;;;;;;;5.40;3.50;;;;;;;;;;11196952;26;20033;-60
2024/04/09 17:23:30;;;;;;;4.25;2.42;;;;;;;;;;11194399;26;20037;-60
2024/04/09 17:28:34;;;;;;;3.03;1.80;;;;;;;;;;11194665;26;20026;-60
2024/04/09 17:33:34;;;;;;;3.03;2.25;;;;;;;;;;11195561;26;20025;-60
2024/04/09 17:38:36;;;;;;;5.75;2.80;;;;;;;;;;11197148;26;20041;-60
2024/04/09 17:43:39;;;;;;;3.15;2.45;;;;;;;;;;11197634;26;20025;-59
2024/04/09 17:48:39;;;;;;;8.38;3.40;;;;;;;;;;11197125;26;20026;-59
2024/04/09 17:53:40;;;;;;;5.18;2.40;;;;;;;;;;11197681;26;20045;-59
2024/04/09 17:58:44;;;;;;;2.90;1.85;;;;;;;;;;11196417;26;20030;-59
2024/04/09 18:03:45;;;;;;;3.83;1.90;;;;;;;;;;11189437;26;20088;-61
2024/04/09 18:08:45;;;;;;;6.03;2.20;;;;;;;;;;11188056;26;20030;-60
2024/04/09 18:13:48;;;;;;;4.93;2.42;;;;;;;;;;11189996;26;20483;-60
2024/04/09 18:18:48;;;;;;;3.60;2.38;;;;;;;;;;11196113;26;20034;-60
2024/04/09 18:23:49;;;;;;;5.50;2.88;;;;;;;;;;11198153;26;20029;-60
2024/04/09 18:28:52;;;;;;;4.38;2.47;;;;;;;;;;11196847;26;20029;-59
2024/04/09 18:33:53;;;;;;;3.78;2.63;;;;;;;;;;11197155;26;20030;-60
2024/04/09 18:38:53;;;;;;;4.15;2.08;;;;;;;;;;11197023;26;20033;-60
2024/04/09 18:43:56;;;;;;;4.18;2.10;;;;;;;;;;11196923;26;20478;-59
2024/04/09 18:48:56;;;;;;;3.25;2.10;;;;;;;;;;11193801;26;20037;-59
2024/04/09 18:53:58;;;;;;;3.97;1.77;;;;;;;;;;11176777;26;20045;-60
2024/04/09 18:59:01;;;;;;;2.38;1.80;;;;;;;;;;11190387;26;20029;-60
2024/04/09 19:04:02;;;;;;;4.30;1.77;;;;;;;;;;11191884;26;20029;-60
2024/04/09 19:09:04;;;;;;;3.28;2.08;;;;;;;;;;11180757;26;20042;-58
2024/04/09 19:14:07;;;;;;;5.15;1.83;;;;;;;;;;11158376;26;19997;-59
2024/04/09 19:19:07;;;;;;;5.70;2.08;;;;;;;;;;11167986;26;20013;-59
2024/04/09 19:24:07;;;;;;;6.88;1.45;;;;;;;;;;11179441;26;19993;-59
2024/04/09 19:29:11;;;;;;;3.20;1.67;;;;;;;;;;11171507;26;20030;-60
2024/04/09 19:34:12;;;;;;;1.88;1.73;;;;;;;;;;11166519;26;20025;-59
2024/04/09 19:39:13;;;;;;;6.82;1.58;;;;;;;;;;11175483;26;20065;-59
2024/04/09 19:44:16;;;;;;;3.58;1.70;;;;;;;;;;11178021;26;20481;-59
2024/04/09 19:49:18;;;;;;;3.42;1.85;;;;;;;;;;11187078;26;20039;-59
2024/04/09 19:54:19;;;;;;;2.33;1.95;;;;;;;;;;11184666;26;20034;-58
2024/04/09 19:59:22;;;;;;;3.50;2.10;;;;;;;;;;11189138;26;20040;-59
2024/04/09 20:04:24;;;;;;;2.92;1.90;;;;;;;;;;11181310;26;20046;-59
2024/04/09 20:09:26;;;;;;;11.32;2.35;;;;;;;;;;11179244;26;20037;-59
2024/04/09 20:14:28;;;;;;;2.10;1.90;;;;;;;;;;11193868;25;20029;-59
2024/04/09 20:19:29;;;;;;;4.45;1.83;;;;;;;;;;11186571;26;20037;-59
2024/04/09 20:24:29;;;;;;;4.03;2.00;;;;;;;;;;11187612;26;20382;-59
2024/04/09 20:29:32;;;;;;;2.53;1.75;;;;;;;;;;11186529;26;20034;-59
2024/04/09 20:34:33;;;;;;;2.83;2.30;;;;;;;;;;11187888;26;20061;-59
2024/04/09 20:39:33;;;;;;;3.42;1.70;;;;;;;;;;11194340;26;20050;-59
2024/04/09 20:44:37;;;;;;;2.40;2.20;;;;;;;;;;11194590;26;20050;-58
2024/04/09 20:49:37;;;;;;;4.07;2.13;;;;;;;;;;11191064;26;20033;-57
2024/04/09 20:54:38;;;;;;;2.85;1.80;;;;;;;;;;11194659;26;20372;-59
2024/04/09 20:59:43;;;;;;;2.03;1.80;;;;;;;;;;11189435;26;20023;-59
2024/04/09 21:04:43;;;;;;;1.98;1.88;;;;;;;;;;11189545;26;20397;-59
2024/04/09 21:09:44;;;;;;;3.35;2.17;;;;;;;;;;11191687;26;20042;-59
2024/04/09 21:14:47;;;;;;;3.15;1.63;;;;;;;;;;11187132;26;20034;-60
2024/04/09 21:19:47;;;;;;;2.00;1.80;;;;;;;;;;11187564;26;20025;-59
2024/04/09 21:24:48;;;;;;;3.45;2.03;;;;;;;;;;11185255;26;20482;-59
2024/04/09 21:29:51;;;;;;;4.70;2.25;;;;;;;;;;11181731;26;20033;-59
2024/04/09 21:34:54;;;;;;;4.57;1.77;;;;;;;;;;11191980;26;20026;-59
2024/04/09 21:39:55;;;;;;;2.83;1.87;;;;;;;;;;11187446;26;20036;-59
2024/04/09 21:44:58;;;;;;;3.65;1.65;;;;;;;;;;11187868;26;20038;-58
2024/04/09 21:49:58;;;;;;;2.95;1.65;;;;;;;;;;11186794;26;20039;-58
2024/04/09 21:54:59;;;;;;;1.90;1.45;;;;;;;;;;11193982;26;20379;-59
2024/04/09 22:00:02;;;;;;;5.13;1.67;;;;;;;;;;11185135;26;20441;-58
2024/04/09 22:05:11;;;;;;;1.70;1.35;;;;;;;;;;11188602;26;20733;-59
2024/04/09 22:10:12;;;;;;;2.10;1.77;;;;;;;;;;11183675;26;20319;-59
2024/04/09 22:15:16;;;;;;;7.13;2.03;;;;;;;;;;11186043;26;20034;-59
2024/04/09 22:20:16;;;;;;;2.05;1.80;;;;;;;;;;11184225;26;20081;-58
2024/04/09 22:25:17;;;;;;;2.17;1.52;;;;;;;;;;11184354;26;20045;-57
2024/04/09 22:30:20;;;;;;;2.60;1.92;;;;;;;;;;11184197;26;20489;-59
2024/04/09 22:35:20;;;;;;;5.38;1.80;;;;;;;;;;11187044;26;20041;-58
2024/04/09 22:40:21;;;;;;;3.88;1.63;;;;;;;;;;11191848;25;20022;-58
2024/04/09 22:45:24;;;;;;;4.97;1.60;;;;;;;;;;11190303;26;20025;-57
2024/04/09 22:50:24;;;;;;;3.17;1.40;;;;;;;;;;11187076;26;20034;-58
2024/04/09 22:55:25;;;;;;;3.72;1.83;;;;;;;;;;11189147;25;20091;-57
2024/04/09 23:00:28;;;;;;;1.85;1.45;;;;;;;;;;11185965;26;20025;-58
2024/04/09 23:05:28;;;;;;;1.70;1.60;;;;;;;;;;11185528;26;20038;-58
2024/04/09 23:10:28;;;;;;;2.17;1.55;;;;;;;;;;11182320;26;20025;-57
2024/04/09 23:15:31;;;;;;;3.70;1.50;;;;;;;;;;11190660;26;20034;-59
2024/04/09 23:20:31;;;;;;;2.35;1.92;;;;;;;;;;11179585;26;20814;-60
2024/04/09 23:25:32;;;;;;;2.15;1.55;;;;;;;;;;11174963;26;20039;-61
2024/04/09 23:30:35;;;;;;;5.05;2.13;;;;;;;;;;11177090;26;20473;-59
2024/04/09 23:35:35;;;;;;;2.72;1.48;;;;;;;;;;11188138;26;20030;-59
2024/04/09 23:40:38;;;;;;;1.75;1.52;;;;;;;;;;11187764;26;20012;-59
2024/04/09 23:45:41;;;;;;;2.75;1.45;;;;;;;;;;11184261;26;20011;-59
2024/04/09 23:50:42;;;;;;;2.25;1.70;;;;;;;;;;11186926;26;20019;-59
2024/04/09 23:55:42;;;;;;;3.15;1.35;;;;;;;;;;11185251;26;20501;-59
